sensor_id;sensor_type;location;lat;lon;timestamp;temperature;humidity
23143;DHT22;11740;51.168;4.112;2023-04-01T00:01:22;9.60;99.90
23143;DHT22;11740;51.168;4.112;2023-04-01T00:03:49;9.60;1.00
23143;DHT22;11740;51.168;4.112;2023-04-01T00:06:17;9.50;1.00
23143;DHT22;11740;51.168;4.112;2023-04-01T00:08:45;9.60;1.00
23143;DHT22;11740;51.168;4.112;2023-04-01T00:11:13;9.60;1.00
23143;DHT22;11740;51.168;4.112;2023-04-01T00:13:40;9.60;1.00
23143;DHT22;11740;51.168;4.112;2023-04-01T00:16:08;9.60;99.90
23143;DHT22;11740;51.168;4.112;2023-04-01T00:18:46;9.60;99.90
23143;DHT22;11740;51.168;4.112;2023-04-01T00:21:14;9.60;99.90
23143;DHT22;11740;51.168;4.112;2023-04-01T00:23:41;9.50;99.90
23143;DHT22;11740;51.168;4.112;2023-04-01T00:26:08;9.50;99.90
23143;DHT22;11740;51.168;4.112;2023-04-01T00:28:36;9.60;99.90
23143;DHT22;11740;51.168;4.112;2023-04-01T00:31:04;9.50;99.90
23143;DHT22;11740;51.168;4.112;2023-04-01T00:33:32;9.50;99.90
23143;DHT22;11740;51.168;4.112;2023-04-01T00:36:19;9.50;99.90
23143;DHT22;11740;51.168;4.112;2023-04-01T00:38:48;9.50;99.90
23143;DHT22;11740;51.168;4.112;2023-04-01T00:41:16;9.50;99.90
23143;DHT22;11740;51.168;4.112;2023-04-01T00:43:46;9.50;99.90
23143;DHT22;11740;51.168;4.112;2023-04-01T00:46:14;9.50;99.90
23143;DHT22;11740;51.168;4.112;2023-04-01T00:48:42;9.50;99.90
23143;DHT22;11740;51.168;4.112;2023-04-01T00:51:30;9.50;99.90
23143;DHT22;11740;51.168;4.112;2023-04-01T00:53:57;9.50;99.90
23143;DHT22;11740;51.168;4.112;2023-04-01T00:56:27;9.50;99.90
23143;DHT22;11740;51.168;4.112;2023-04-01T00:58:58;9.50;99.90
23143;DHT22;11740;51.168;4.112;2023-04-01T01:01:27;9.50;99.90
23143;DHT22;11740;51.168;4.112;2023-04-01T01:03:55;9.50;99.90
23143;DHT22;11740;51.168;4.112;2023-04-01T01:12:11;9.50;1.00
23143;DHT22;11740;51.168;4.112;2023-04-01T01:17:13;9.50;1.00
23143;DHT22;11740;51.168;4.112;2023-04-01T01:20:04;9.40;1.00
23143;DHT22;11740;51.168;4.112;2023-04-01T01:36:36;9.40;10.10
23143;DHT22;11740;51.168;4.112;2023-04-01T01:39:05;9.40;23.60
23143;DHT22;11740;51.168;4.112;2023-04-01T01:41:34;9.30;71.60
23143;DHT22;11740;51.168;4.112;2023-04-01T01:44:02;9.30;99.90
23143;DHT22;11740;51.168;4.112;2023-04-01T01:46:30;9.40;99.90
23143;DHT22;11740;51.168;4.112;2023-04-01T01:48:57;9.30;99.90
23143;DHT22;11740;51.168;4.112;2023-04-01T01:51:26;9.30;99.90
23143;DHT22;11740;51.168;4.112;2023-04-01T01:53:54;9.30;99.90
23143;DHT22;11740;51.168;4.112;2023-04-01T01:56:21;9.30;99.90
23143;DHT22;11740;51.168;4.112;2023-04-01T01:58:58;9.30;99.90
23143;DHT22;11740;51.168;4.112;2023-04-01T02:01:28;9.30;99.90
23143;DHT22;11740;51.168;4.112;2023-04-01T02:03:56;9.20;99.90
23143;DHT22;11740;51.168;4.112;2023-04-01T02:06:25;9.20;99.90
23143;DHT22;11740;51.168;4.112;2023-04-01T02:08:54;9.20;99.90
23143;DHT22;11740;51.168;4.112;2023-04-01T02:11:30;9.20;99.90
23143;DHT22;11740;51.168;4.112;2023-04-01T02:14:02;9.20;99.90
23143;DHT22;11740;51.168;4.112;2023-04-01T02:16:35;9.20;99.90
23143;DHT22;11740;51.168;4.112;2023-04-01T02:19:06;9.20;99.90
23143;DHT22;11740;51.168;4.112;2023-04-01T02:21:34;9.20;99.90
23143;DHT22;11740;51.168;4.112;2023-04-01T02:24:02;9.20;99.90
23143;DHT22;11740;51.168;4.112;2023-04-01T02:26:32;9.20;99.90
23143;DHT22;11740;51.168;4.112;2023-04-01T02:28:59;9.20;99.90
23143;DHT22;11740;51.168;4.112;2023-04-01T02:31:26;9.20;58.80
23143;DHT22;11740;51.168;4.112;2023-04-01T02:33:53;9.20;4.70
23143;DHT22;11740;51.168;4.112;2023-04-01T02:36:21;9.20;1.00
23143;DHT22;11740;51.168;4.112;2023-04-01T02:38:48;9.20;1.00
23143;DHT22;11740;51.168;4.112;2023-04-01T02:41:16;9.20;1.00
23143;DHT22;11740;51.168;4.112;2023-04-01T02:43:43;9.20;1.00
23143;DHT22;11740;51.168;4.112;2023-04-01T02:46:10;9.20;1.00
23143;DHT22;11740;51.168;4.112;2023-04-01T02:48:37;9.10;1.00
23143;DHT22;11740;51.168;4.112;2023-04-01T02:51:03;9.10;1.00
23143;DHT22;11740;51.168;4.112;2023-04-01T02:53:30;9.10;1.00
23143;DHT22;11740;51.168;4.112;2023-04-01T02:55:57;9.10;1.00
23143;DHT22;11740;51.168;4.112;2023-04-01T02:58:24;9.20;1.00
23143;DHT22;11740;51.168;4.112;2023-04-01T03:00:51;9.10;1.00
23143;DHT22;11740;51.168;4.112;2023-04-01T03:03:18;9.20;1.00
23143;DHT22;11740;51.168;4.112;2023-04-01T03:05:44;9.20;1.00
23143;DHT22;11740;51.168;4.112;2023-04-01T03:08:11;9.10;1.00
23143;DHT22;11740;51.168;4.112;2023-04-01T03:10:38;9.10;1.00
23143;DHT22;11740;51.168;4.112;2023-04-01T03:13:05;9.10;1.00
23143;DHT22;11740;51.168;4.112;2023-04-01T03:15:32;9.10;1.00
23143;DHT22;11740;51.168;4.112;2023-04-01T03:17:59;9.10;1.00
23143;DHT22;11740;51.168;4.112;2023-04-01T03:20:26;9.10;1.00
23143;DHT22;11740;51.168;4.112;2023-04-01T03:22:53;9.10;1.00
23143;DHT22;11740;51.168;4.112;2023-04-01T03:25:20;9.10;1.00
23143;DHT22;11740;51.168;4.112;2023-04-01T03:27:48;9.10;1.00
23143;DHT22;11740;51.168;4.112;2023-04-01T03:30:14;9.10;1.00
23143;DHT22;11740;51.168;4.112;2023-04-01T03:32:41;9.00;1.00
23143;DHT22;11740;51.168;4.112;2023-04-01T03:35:08;9.10;1.00
23143;DHT22;11740;51.168;4.112;2023-04-01T03:37:36;9.00;1.00
23143;DHT22;11740;51.168;4.112;2023-04-01T03:40:04;9.10;1.00
23143;DHT22;11740;51.168;4.112;2023-04-01T03:42:31;9.00;1.00
23143;DHT22;11740;51.168;4.112;2023-04-01T03:44:59;9.00;1.00
23143;DHT22;11740;51.168;4.112;2023-04-01T03:47:26;9.00;1.00
23143;DHT22;11740;51.168;4.112;2023-04-01T03:49:53;9.00;1.00
23143;DHT22;11740;51.168;4.112;2023-04-01T03:52:19;9.00;1.00
23143;DHT22;11740;51.168;4.112;2023-04-01T03:54:46;9.00;1.00
23143;DHT22;11740;51.168;4.112;2023-04-01T03:57:13;9.10;1.00
23143;DHT22;11740;51.168;4.112;2023-04-01T03:59:40;9.10;1.00
23143;DHT22;11740;51.168;4.112;2023-04-01T04:02:07;9.00;1.00
23143;DHT22;11740;51.168;4.112;2023-04-01T04:04:34;9.00;1.00
23143;DHT22;11740;51.168;4.112;2023-04-01T04:07:01;9.00;1.00
23143;DHT22;11740;51.168;4.112;2023-04-01T04:09:29;9.00;1.00
23143;DHT22;11740;51.168;4.112;2023-04-01T04:11:57;9.00;1.00
23143;DHT22;11740;51.168;4.112;2023-04-01T04:14:23;9.00;1.00
23143;DHT22;11740;51.168;4.112;2023-04-01T04:16:50;9.00;1.00
23143;DHT22;11740;51.168;4.112;2023-04-01T04:19:17;9.00;1.00
23143;DHT22;11740;51.168;4.112;2023-04-01T04:21:44;9.00;1.00
23143;DHT22;11740;51.168;4.112;2023-04-01T04:24:11;8.90;1.00
23143;DHT22;11740;51.168;4.112;2023-04-01T04:26:38;8.90;1.00
23143;DHT22;11740;51.168;4.112;2023-04-01T04:29:05;9.00;1.00
23143;DHT22;11740;51.168;4.112;2023-04-01T04:31:31;8.90;1.00
23143;DHT22;11740;51.168;4.112;2023-04-01T04:33:59;9.00;1.00
23143;DHT22;11740;51.168;4.112;2023-04-01T04:36:27;8.90;1.00
23143;DHT22;11740;51.168;4.112;2023-04-01T04:38:54;8.90;1.00
23143;DHT22;11740;51.168;4.112;2023-04-01T04:41:21;8.90;1.00
23143;DHT22;11740;51.168;4.112;2023-04-01T04:43:52;8.90;1.00
23143;DHT22;11740;51.168;4.112;2023-04-01T04:46:21;8.90;1.00
23143;DHT22;11740;51.168;4.112;2023-04-01T04:48:48;8.90;1.00
23143;DHT22;11740;51.168;4.112;2023-04-01T04:51:16;8.90;1.00
23143;DHT22;11740;51.168;4.112;2023-04-01T04:53:44;8.90;1.00
23143;DHT22;11740;51.168;4.112;2023-04-01T04:56:12;8.90;1.00
23143;DHT22;11740;51.168;4.112;2023-04-01T04:58:39;8.90;1.00
23143;DHT22;11740;51.168;4.112;2023-04-01T05:01:10;8.90;1.00
23143;DHT22;11740;51.168;4.112;2023-04-01T05:03:39;8.90;1.00
23143;DHT22;11740;51.168;4.112;2023-04-01T05:06:06;8.90;1.00
23143;DHT22;11740;51.168;4.112;2023-04-01T05:08:35;8.90;1.00
23143;DHT22;11740;51.168;4.112;2023-04-01T05:11:02;8.90;1.00
23143;DHT22;11740;51.168;4.112;2023-04-01T05:13:29;8.90;1.00
23143;DHT22;11740;51.168;4.112;2023-04-01T05:15:56;8.90;1.00
23143;DHT22;11740;51.168;4.112;2023-04-01T05:18:23;8.90;1.00
23143;DHT22;11740;51.168;4.112;2023-04-01T05:20:50;8.80;1.00
23143;DHT22;11740;51.168;4.112;2023-04-01T05:23:19;8.80;1.00
23143;DHT22;11740;51.168;4.112;2023-04-01T05:25:48;8.80;1.00
23143;DHT22;11740;51.168;4.112;2023-04-01T05:28:16;8.80;1.00
23143;DHT22;11740;51.168;4.112;2023-04-01T05:30:43;8.80;1.00
23143;DHT22;11740;51.168;4.112;2023-04-01T05:33:11;8.80;1.00
23143;DHT22;11740;51.168;4.112;2023-04-01T05:35:39;8.80;1.00
23143;DHT22;11740;51.168;4.112;2023-04-01T05:38:07;8.80;1.00
23143;DHT22;11740;51.168;4.112;2023-04-01T05:40:33;8.80;1.00
23143;DHT22;11740;51.168;4.112;2023-04-01T05:43:00;8.80;1.00
23143;DHT22;11740;51.168;4.112;2023-04-01T05:45:27;8.80;1.00
23143;DHT22;11740;51.168;4.112;2023-04-01T05:47:54;8.80;1.00
23143;DHT22;11740;51.168;4.112;2023-04-01T05:50:21;8.80;1.00
23143;DHT22;11740;51.168;4.112;2023-04-01T05:52:48;8.80;1.00
23143;DHT22;11740;51.168;4.112;2023-04-01T05:55:15;8.70;1.00
23143;DHT22;11740;51.168;4.112;2023-04-01T05:57:42;8.80;1.00
23143;DHT22;11740;51.168;4.112;2023-04-01T06:00:11;8.70;1.00
23143;DHT22;11740;51.168;4.112;2023-04-01T06:02:39;8.70;1.00
23143;DHT22;11740;51.168;4.112;2023-04-01T06:05:17;8.70;1.00
23143;DHT22;11740;51.168;4.112;2023-04-01T06:07:46;8.70;1.00
23143;DHT22;11740;51.168;4.112;2023-04-01T06:10:17;8.70;1.00
23143;DHT22;11740;51.168;4.112;2023-04-01T06:12:55;8.70;1.00
23143;DHT22;11740;51.168;4.112;2023-04-01T06:15:36;8.70;1.00
23143;DHT22;11740;51.168;4.112;2023-04-01T06:18:26;8.70;1.00
23143;DHT22;11740;51.168;4.112;2023-04-01T06:23:33;8.70;1.00
23143;DHT22;11740;51.168;4.112;2023-04-01T06:26:12;8.70;1.00
23143;DHT22;11740;51.168;4.112;2023-04-01T06:28:56;8.70;1.00
23143;DHT22;11740;51.168;4.112;2023-04-01T06:35:20;8.70;1.00
23143;DHT22;11740;51.168;4.112;2023-04-01T06:37:48;8.70;1.00
23143;DHT22;11740;51.168;4.112;2023-04-01T06:43:38;8.70;1.00
23143;DHT22;11740;51.168;4.112;2023-04-01T06:46:19;8.70;1.00
23143;DHT22;11740;51.168;4.112;2023-04-01T06:54:37;8.70;1.00
23143;DHT22;11740;51.168;4.112;2023-04-01T06:57:16;8.70;1.00
23143;DHT22;11740;51.168;4.112;2023-04-01T06:59:48;8.70;1.00
23143;DHT22;11740;51.168;4.112;2023-04-01T07:04:46;8.70;1.00
23143;DHT22;11740;51.168;4.112;2023-04-01T07:07:16;8.70;1.00
23143;DHT22;11740;51.168;4.112;2023-04-01T07:09:49;8.70;1.00
23143;DHT22;11740;51.168;4.112;2023-04-01T07:12:25;8.70;1.00
23143;DHT22;11740;51.168;4.112;2023-04-01T07:14:58;8.80;1.00
23143;DHT22;11740;51.168;4.112;2023-04-01T07:17:30;8.80;1.00
23143;DHT22;11740;51.168;4.112;2023-04-01T07:22:42;8.80;1.00
23143;DHT22;11740;51.168;4.112;2023-04-01T07:25:18;8.80;1.00
23143;DHT22;11740;51.168;4.112;2023-04-01T07:27:47;8.80;1.00
23143;DHT22;11740;51.168;4.112;2023-04-01T07:30:16;8.80;1.00
23143;DHT22;11740;51.168;4.112;2023-04-01T07:32:47;8.80;1.00
23143;DHT22;11740;51.168;4.112;2023-04-01T07:46:00;8.90;1.00
23143;DHT22;11740;51.168;4.112;2023-04-01T07:48:37;8.90;1.00
23143;DHT22;11740;51.168;4.112;2023-04-01T07:54:49;8.90;1.00
23143;DHT22;11740;51.168;4.112;2023-04-01T07:57:24;8.90;1.00
23143;DHT22;11740;51.168;4.112;2023-04-01T08:00:08;8.90;1.00
23143;DHT22;11740;51.168;4.112;2023-04-01T08:05:46;8.90;1.00
23143;DHT22;11740;51.168;4.112;2023-04-01T08:08:20;8.90;1.00
23143;DHT22;11740;51.168;4.112;2023-04-01T08:11:14;8.90;1.00
23143;DHT22;11740;51.168;4.112;2023-04-01T08:22:03;9.00;1.00
23143;DHT22;11740;51.168;4.112;2023-04-01T08:24:41;9.00;1.00
23143;DHT22;11740;51.168;4.112;2023-04-01T08:30:28;9.10;1.00
23143;DHT22;11740;51.168;4.112;2023-04-01T08:32:56;9.10;1.00
23143;DHT22;11740;51.168;4.112;2023-04-01T08:35:38;9.10;1.00
23143;DHT22;11740;51.168;4.112;2023-04-01T08:38:13;9.10;1.00
23143;DHT22;11740;51.168;4.112;2023-04-01T08:40:56;9.10;1.00
23143;DHT22;11740;51.168;4.112;2023-04-01T09:00:10;9.20;1.00
23143;DHT22;11740;51.168;4.112;2023-04-01T09:02:50;9.20;1.00
23143;DHT22;11740;51.168;4.112;2023-04-01T09:08:38;9.30;1.00
23143;DHT22;11740;51.168;4.112;2023-04-01T09:22:10;9.30;99.90
23143;DHT22;11740;51.168;4.112;2023-04-01T09:27:49;9.30;99.90
23143;DHT22;11740;51.168;4.112;2023-04-01T09:30:33;9.40;99.90
23143;DHT22;11740;51.168;4.112;2023-04-01T09:36:07;9.40;99.90
23143;DHT22;11740;51.168;4.112;2023-04-01T09:38:50;9.40;99.90
23143;DHT22;11740;51.168;4.112;2023-04-01T09:41:31;9.40;99.90
23143;DHT22;11740;51.168;4.112;2023-04-01T09:44:01;9.40;99.90
23143;DHT22;11740;51.168;4.112;2023-04-01T09:49:40;9.40;99.90
23143;DHT22;11740;51.168;4.112;2023-04-01T09:52:38;9.30;99.90
23143;DHT22;11740;51.168;4.112;2023-04-01T09:55:39;9.30;99.90
23143;DHT22;11740;51.168;4.112;2023-04-01T10:14:52;9.50;99.90
23143;DHT22;11740;51.168;4.112;2023-04-01T10:36:53;9.50;57.70
23143;DHT22;11740;51.168;4.112;2023-04-01T10:39:34;9.50;36.30
23143;DHT22;11740;51.168;4.112;2023-04-01T10:47:35;9.50;1.00
23143;DHT22;11740;51.168;4.112;2023-04-01T11:21:58;9.70;1.00
23143;DHT22;11740;51.168;4.112;2023-04-01T11:33:05;9.70;1.00
23143;DHT22;11740;51.168;4.112;2023-04-01T11:35:48;9.70;1.00
23143;DHT22;11740;51.168;4.112;2023-04-01T12:08:52;9.90;1.00
23143;DHT22;11740;51.168;4.112;2023-04-01T12:11:15;9.90;99.90
23143;DHT22;11740;51.168;4.112;2023-04-01T12:13:52;9.90;99.90
23143;DHT22;11740;51.168;4.112;2023-04-01T12:19:04;10.10;99.90
23143;DHT22;11740;51.168;4.112;2023-04-01T12:22:03;10.00;16.50
23143;DHT22;11740;51.168;4.112;2023-04-01T12:44:51;10.20;1.00
23143;DHT22;11740;51.168;4.112;2023-04-01T12:51:01;10.20;1.00
23143;DHT22;11740;51.168;4.112;2023-04-01T12:55:49;10.10;1.00
23143;DHT22;11740;51.168;4.112;2023-04-01T13:06:40;10.10;1.00
23143;DHT22;11740;51.168;4.112;2023-04-01T13:09:53;10.10;1.00
23143;DHT22;11740;51.168;4.112;2023-04-01T13:12:37;10.10;1.00
23143;DHT22;11740;51.168;4.112;2023-04-01T13:15:11;10.10;1.00
23143;DHT22;11740;51.168;4.112;2023-04-01T13:31:27;10.10;1.00
23143;DHT22;11740;51.168;4.112;2023-04-01T13:34:22;10.10;1.00
23143;DHT22;11740;51.168;4.112;2023-04-01T13:42:38;10.20;1.00
23143;DHT22;11740;51.168;4.112;2023-04-01T13:45:12;10.30;1.00
23143;DHT22;11740;51.168;4.112;2023-04-01T13:56:23;10.30;1.00
23143;DHT22;11740;51.168;4.112;2023-04-01T14:04:34;10.20;99.90
23143;DHT22;11740;51.168;4.112;2023-04-01T14:13:13;10.20;99.90
23143;DHT22;11740;51.168;4.112;2023-04-01T14:21:46;10.20;99.90
23143;DHT22;11740;51.168;4.112;2023-04-01T14:24:28;10.20;99.90
23143;DHT22;11740;51.168;4.112;2023-04-01T14:27:08;10.20;99.90
23143;DHT22;11740;51.168;4.112;2023-04-01T14:29:47;10.20;99.90
23143;DHT22;11740;51.168;4.112;2023-04-01T14:35:27;10.20;99.90
23143;DHT22;11740;51.168;4.112;2023-04-01T14:38:02;10.20;99.90
23143;DHT22;11740;51.168;4.112;2023-04-01T14:40:54;10.20;99.90
23143;DHT22;11740;51.168;4.112;2023-04-01T14:51:50;10.30;99.90
23143;DHT22;11740;51.168;4.112;2023-04-01T14:54:37;10.30;99.90
23143;DHT22;11740;51.168;4.112;2023-04-01T14:57:22;10.30;99.90
23143;DHT22;11740;51.168;4.112;2023-04-01T15:16:55;10.10;43.80
23143;DHT22;11740;51.168;4.112;2023-04-01T15:33:39;10.10;99.90
23143;DHT22;11740;51.168;4.112;2023-04-01T15:39:09;10.00;99.90
23143;DHT22;11740;51.168;4.112;2023-04-01T15:55:48;9.90;99.90
23143;DHT22;11740;51.168;4.112;2023-04-01T15:58:22;9.90;99.90
23143;DHT22;11740;51.168;4.112;2023-04-01T16:01:04;9.90;99.90
23143;DHT22;11740;51.168;4.112;2023-04-01T16:03:39;9.90;99.90
23143;DHT22;11740;51.168;4.112;2023-04-01T16:09:12;9.80;99.90
23143;DHT22;11740;51.168;4.112;2023-04-01T16:22:49;9.80;99.90
23143;DHT22;11740;51.168;4.112;2023-04-01T16:30:37;9.80;99.90
23143;DHT22;11740;51.168;4.112;2023-04-01T16:41:52;9.70;99.90
23143;DHT22;11740;51.168;4.112;2023-04-01T16:44:46;9.70;99.90
23143;DHT22;11740;51.168;4.112;2023-04-01T16:47:29;9.70;1.00
23143;DHT22;11740;51.168;4.112;2023-04-01T16:49:59;9.70;1.00
23143;DHT22;11740;51.168;4.112;2023-04-01T16:52:42;9.80;1.00
23143;DHT22;11740;51.168;4.112;2023-04-01T17:01:05;9.80;1.00
23143;DHT22;11740;51.168;4.112;2023-04-01T17:14:35;9.70;99.90
23143;DHT22;11740;51.168;4.112;2023-04-01T17:17:12;9.70;99.90
23143;DHT22;11740;51.168;4.112;2023-04-01T17:22:39;9.60;99.90
23143;DHT22;11740;51.168;4.112;2023-04-01T17:25:20;9.60;99.90
23143;DHT22;11740;51.168;4.112;2023-04-01T17:28:09;9.50;99.90
23143;DHT22;11740;51.168;4.112;2023-04-01T17:30:49;9.50;99.90
23143;DHT22;11740;51.168;4.112;2023-04-01T17:39:25;9.50;99.90
23143;DHT22;11740;51.168;4.112;2023-04-01T17:44:50;9.50;99.90
23143;DHT22;11740;51.168;4.112;2023-04-01T17:47:25;9.50;99.90
23143;DHT22;11740;51.168;4.112;2023-04-01T18:02:34;9.30;99.90
23143;DHT22;11740;51.168;4.112;2023-04-01T18:13:12;9.30;99.90
23143;DHT22;11740;51.168;4.112;2023-04-01T18:23:58;9.20;99.90
23143;DHT22;11740;51.168;4.112;2023-04-01T18:26:31;9.20;99.90
23143;DHT22;11740;51.168;4.112;2023-04-01T18:29:02;9.20;99.90
23143;DHT22;11740;51.168;4.112;2023-04-01T18:31:44;9.20;99.90
23143;DHT22;11740;51.168;4.112;2023-04-01T18:34:20;9.10;99.90
23143;DHT22;11740;51.168;4.112;2023-04-01T18:37:25;9.10;99.90
23143;DHT22;11740;51.168;4.112;2023-04-01T18:40:02;9.10;99.90
23143;DHT22;11740;51.168;4.112;2023-04-01T18:45:37;9.10;99.90
23143;DHT22;11740;51.168;4.112;2023-04-01T18:50:56;9.10;99.90
23143;DHT22;11740;51.168;4.112;2023-04-01T18:53:30;9.10;99.90
23143;DHT22;11740;51.168;4.112;2023-04-01T18:56:13;9.10;99.90
23143;DHT22;11740;51.168;4.112;2023-04-01T18:58:49;9.10;99.90
23143;DHT22;11740;51.168;4.112;2023-04-01T19:01:31;9.00;99.90
23143;DHT22;11740;51.168;4.112;2023-04-01T19:06:55;9.10;99.90
23143;DHT22;11740;51.168;4.112;2023-04-01T19:09:26;9.10;99.90
23143;DHT22;11740;51.168;4.112;2023-04-01T19:17:40;9.00;99.90
23143;DHT22;11740;51.168;4.112;2023-04-01T19:25:48;9.00;1.00
23143;DHT22;11740;51.168;4.112;2023-04-01T19:28:20;9.00;99.90
23143;DHT22;11740;51.168;4.112;2023-04-01T19:30:57;9.00;1.00
23143;DHT22;11740;51.168;4.112;2023-04-01T19:47:09;9.00;1.00
23143;DHT22;11740;51.168;4.112;2023-04-01T19:50:21;8.90;1.00
23143;DHT22;11740;51.168;4.112;2023-04-01T19:52:56;8.90;1.00
23143;DHT22;11740;51.168;4.112;2023-04-01T19:56:28;8.90;1.00
23143;DHT22;11740;51.168;4.112;2023-04-01T20:01:27;8.90;1.00
23143;DHT22;11740;51.168;4.112;2023-04-01T20:04:29;8.90;1.00
23143;DHT22;11740;51.168;4.112;2023-04-01T20:07:07;8.90;1.00
23143;DHT22;11740;51.168;4.112;2023-04-01T20:09:42;8.90;1.00
23143;DHT22;11740;51.168;4.112;2023-04-01T20:14:50;8.90;1.00
23143;DHT22;11740;51.168;4.112;2023-04-01T20:22:38;8.90;1.00
23143;DHT22;11740;51.168;4.112;2023-04-01T20:25:32;8.90;1.00
23143;DHT22;11740;51.168;4.112;2023-04-01T20:28:09;8.90;1.00
23143;DHT22;11740;51.168;4.112;2023-04-01T20:30:45;9.00;1.00
23143;DHT22;11740;51.168;4.112;2023-04-01T20:41:28;8.90;1.00
23143;DHT22;11740;51.168;4.112;2023-04-01T20:44:12;8.90;1.00
23143;DHT22;11740;51.168;4.112;2023-04-01T20:53:01;8.90;25.00
23143;DHT22;11740;51.168;4.112;2023-04-01T21:01:11;9.00;99.90
23143;DHT22;11740;51.168;4.112;2023-04-01T21:12:00;8.90;99.90
23143;DHT22;11740;51.168;4.112;2023-04-01T21:23:03;8.90;99.90
23143;DHT22;11740;51.168;4.112;2023-04-01T21:25:37;8.90;99.90
23143;DHT22;11740;51.168;4.112;2023-04-01T21:28:25;9.00;99.90
23143;DHT22;11740;51.168;4.112;2023-04-01T21:37:02;8.90;99.90
23143;DHT22;11740;51.168;4.112;2023-04-01T21:53:49;8.90;99.90
23143;DHT22;11740;51.168;4.112;2023-04-01T22:09:39;8.90;99.90
23143;DHT22;11740;51.168;4.112;2023-04-01T22:12:44;8.90;99.90
23143;DHT22;11740;51.168;4.112;2023-04-01T22:15:24;8.90;99.90
23143;DHT22;11740;51.168;4.112;2023-04-01T22:19:00;8.90;99.90
23143;DHT22;11740;51.168;4.112;2023-04-01T22:21:18;8.90;99.90
23143;DHT22;11740;51.168;4.112;2023-04-01T22:23:54;8.90;99.90
23143;DHT22;11740;51.168;4.112;2023-04-01T22:26:37;8.90;99.90
23143;DHT22;11740;51.168;4.112;2023-04-01T22:32:18;8.90;99.90
23143;DHT22;11740;51.168;4.112;2023-04-01T22:34:49;8.90;99.90
23143;DHT22;11740;51.168;4.112;2023-04-01T22:40:25;8.80;53.80
23143;DHT22;11740;51.168;4.112;2023-04-01T22:51:01;8.80;17.40
23143;DHT22;11740;51.168;4.112;2023-04-01T22:56:19;8.80;37.90
23143;DHT22;11740;51.168;4.112;2023-04-01T22:58:56;8.80;30.00
23143;DHT22;11740;51.168;4.112;2023-04-01T23:01:28;8.80;18.30
23143;DHT22;11740;51.168;4.112;2023-04-01T23:03:57;8.80;4.50
23143;DHT22;11740;51.168;4.112;2023-04-01T23:06:30;8.70;1.00
23143;DHT22;11740;51.168;4.112;2023-04-01T23:09:08;8.70;1.00
23143;DHT22;11740;51.168;4.112;2023-04-01T23:19:35;8.70;1.00
23143;DHT22;11740;51.168;4.112;2023-04-01T23:27:51;8.60;1.00
23143;DHT22;11740;51.168;4.112;2023-04-01T23:35:59;8.60;1.00
23143;DHT22;11740;51.168;4.112;2023-04-01T23:38:34;8.60;1.00
23143;DHT22;11740;51.168;4.112;2023-04-01T23:41:02;8.60;1.00
23143;DHT22;11740;51.168;4.112;2023-04-01T23:43:30;8.50;1.00
23143;DHT22;11740;51.168;4.112;2023-04-01T23:46:00;8.50;1.00
23143;DHT22;11740;51.168;4.112;2023-04-01T23:48:35;8.50;1.00
23143;DHT22;11740;51.168;4.112;2023-04-01T23:51:04;8.50;1.00
23143;DHT22;11740;51.168;4.112;2023-04-01T23:53:45;8.50;1.00
23143;DHT22;11740;51.168;4.112;2023-04-01T23:56:15;8.50;1.00
23143;DHT22;11740;51.168;4.112;2023-04-01T23:58:47;8.40;1.00
